Time;durP1;ratioP1;P1;durP2;ratioP2;P2;SDS_P1;SDS_P2;PMS_P1;PMS_P2;Temp;Humidity;BMP_temperature;BMP_pressure;BME280_temperature;BME280_humidity;BME280_pressure;Samples;Min_cycle;Max_cycle;Signal;HPM_P1;HPM_P2
2022/10/21 00:01:04;;;;;;;;;;;20.00;69.80;;;;;;5054259;28;20368;-62
2022/10/21 00:03:30;;;;;;;;;;;20.00;69.80;;;;;;5068095;28;19981;-62
2022/10/21 00:05:55;;;;;;;;;;;20.00;69.80;;;;;;5054002;28;19925;-62
2022/10/21 00:08:21;;;;;;;;;;;20.00;69.80;;;;;;5053767;28;20011;-62
2022/10/21 00:10:54;;;;;;;;;;;20.00;69.80;;;;;;5053122;28;19928;-62
2022/10/21 00:13:20;;;;;;;;;;;20.00;69.80;;;;;;5053636;28;19931;-62
2022/10/21 00:15:55;;;;;;;;;;;20.00;69.80;;;;;;5054088;28;20008;-62
2022/10/21 00:18:21;;;;;;;;;;;20.00;69.80;;;;;;5052667;28;19925;-63
2022/10/21 00:20:46;;;;;;;;;;;19.90;69.70;;;;;;5068427;28;19927;-62
2022/10/21 00:23:12;;;;;;;;;;;19.90;69.80;;;;;;5052930;28;20281;-62
2022/10/21 00:25:37;;;;;;;;;;;20.00;69.80;;;;;;5052799;28;19972;-63
2022/10/21 00:28:03;;;;;;;;;;;19.90;69.70;;;;;;5035994;28;19948;-62
2022/10/21 00:30:28;;;;;;;;;;;19.90;69.70;;;;;;5053105;28;19975;-62
2022/10/21 00:32:54;;;;;;;;;;;19.90;69.70;;;;;;5052946;28;20391;-64
2022/10/21 00:35:19;;;;;;;;;;;19.90;69.80;;;;;;5053273;28;20011;-63
2022/10/21 00:37:45;;;;;;;;;;;19.90;69.80;;;;;;5035430;28;20356;-62
2022/10/21 00:40:10;;;;;;;;;;;19.90;69.70;;;;;;5052002;28;19924;-63
2022/10/21 00:42:37;;;;;;;;;;;19.90;69.70;;;;;;5053370;28;20376;-62
2022/10/21 00:45:06;;;;;;;;;;;19.90;69.70;;;;;;5052840;28;20281;-62
2022/10/21 00:47:32;;;;;;;;;;;19.90;69.70;;;;;;5052457;28;19929;-62
2022/10/21 00:49:59;;;;;;;;;;;19.90;69.70;;;;;;5068711;28;19978;-62
2022/10/21 00:52:24;;;;;;;;;;;19.90;69.70;;;;;;5067371;28;19925;-62
2022/10/21 00:54:50;;;;;;;;;;;19.90;69.70;;;;;;5052897;28;19925;-62
2022/10/21 00:57:16;;;;;;;;;;;19.90;69.70;;;;;;5052460;28;20011;-62
2022/10/21 00:59:43;;;;;;;;;;;19.90;69.70;;;;;;5052363;28;20086;-63
2022/10/21 01:02:08;;;;;;;;;;;19.80;69.60;;;;;;5052894;28;19932;-63
2022/10/21 01:04:34;;;;;;;;;;;19.80;69.70;;;;;;5053169;28;19925;-62
2022/10/21 01:06:59;;;;;;;;;;;19.80;69.70;;;;;;5051666;28;20358;-62
2022/10/21 01:09:25;;;;;;;;;;;19.80;69.70;;;;;;5068059;28;20445;-62
2022/10/21 01:11:50;;;;;;;;;;;19.80;69.70;;;;;;5053002;28;19921;-62
2022/10/21 01:14:25;;;;;;;;;;;19.80;69.70;;;;;;5051879;28;19928;-62
2022/10/21 01:16:58;;;;;;;;;;;19.80;69.70;;;;;;5052622;28;19994;-62
2022/10/21 01:19:27;;;;;;;;;;;19.80;69.60;;;;;;5067820;28;19929;-62
2022/10/21 01:21:55;;;;;;;;;;;19.80;69.70;;;;;;5051882;28;19925;-62
2022/10/21 01:24:38;;;;;;;;;;;19.80;69.70;;;;;;5068013;28;19931;-62
2022/10/21 01:27:10;;;;;;;;;;;19.80;70.30;;;;;;5066787;28;20024;-62
2022/10/21 01:29:38;;;;;;;;;;;19.80;69.70;;;;;;5051679;28;19929;-62
2022/10/21 01:32:24;;;;;;;;;;;19.80;69.70;;;;;;5052512;28;19934;-62
2022/10/21 01:34:56;;;;;;;;;;;19.80;69.70;;;;;;5051488;28;20426;-62
2022/10/21 01:37:23;;;;;;;;;;;19.80;69.70;;;;;;5067666;28;19925;-62
2022/10/21 01:39:50;;;;;;;;;;;19.80;69.70;;;;;;5067846;28;19947;-62
2022/10/21 01:42:23;;;;;;;;;;;19.70;69.60;;;;;;5066535;28;19924;-62
2022/10/21 01:44:48;;;;;;;;;;;19.80;69.70;;;;;;5067250;28;19925;-62
2022/10/21 01:47:15;;;;;;;;;;;19.80;69.70;;;;;;5052075;28;19994;-62
2022/10/21 01:49:43;;;;;;;;;;;19.70;69.60;;;;;;5066879;28;20392;-62
2022/10/21 01:52:08;;;;;;;;;;;19.70;69.60;;;;;;5051584;28;19931;-62
2022/10/21 01:54:35;;;;;;;;;;;19.70;69.60;;;;;;5051948;28;19925;-62
2022/10/21 01:57:00;;;;;;;;;;;19.70;69.60;;;;;;5067130;28;19932;-62
2022/10/21 01:59:26;;;;;;;;;;;19.70;69.60;;;;;;5067594;28;19929;-62
2022/10/21 02:01:52;;;;;;;;;;;19.70;69.60;;;;;;5050473;28;20102;-62
2022/10/21 02:04:17;;;;;;;;;;;19.70;69.60;;;;;;5051115;28;20460;-63
2022/10/21 02:06:42;;;;;;;;;;;19.70;69.60;;;;;;5034142;28;19924;-63
2022/10/21 02:09:08;;;;;;;;;;;19.70;69.60;;;;;;5067363;28;20007;-62
2022/10/21 02:11:34;;;;;;;;;;;19.70;70.20;;;;;;5051313;28;19925;-62
2022/10/21 02:14:00;;;;;;;;;;;19.70;69.60;;;;;;5067888;28;20367;-63
2022/10/21 02:16:27;;;;;;;;;;;19.70;69.60;;;;;;5067524;28;19970;-62
2022/10/21 02:18:53;;;;;;;;;;;19.70;69.70;;;;;;5051438;28;19932;-62
2022/10/21 02:21:19;;;;;;;;;;;19.70;69.60;;;;;;5051870;28;19950;-62
2022/10/21 02:23:51;;;;;;;;;;;19.70;69.60;;;;;;5066536;28;20419;-62
2022/10/21 02:26:17;;;;;;;;;;;19.70;69.60;;;;;;5051845;28;19954;-63
2022/10/21 02:28:42;;;;;;;;;;;19.70;69.50;;;;;;5052015;28;19940;-62
2022/10/21 02:31:17;;;;;;;;;;;19.70;69.60;;;;;;5033046;28;20389;-63
2022/10/21 02:33:42;;;;;;;;;;;19.60;69.50;;;;;;5052211;28;19989;-63
2022/10/21 02:36:11;;;;;;;;;;;19.60;69.60;;;;;;5051890;28;20360;-63
2022/10/21 02:38:37;;;;;;;;;;;19.60;69.60;;;;;;5066391;28;19925;-63
2022/10/21 02:41:04;;;;;;;;;;;19.60;69.50;;;;;;5067716;28;19924;-63
2022/10/21 02:43:34;;;;;;;;;;;19.60;69.50;;;;;;5050654;28;19939;-63
2022/10/21 02:46:00;;;;;;;;;;;19.60;69.60;;;;;;5070494;28;19928;-63
2022/10/21 02:48:26;;;;;;;;;;;19.60;69.50;;;;;;5070829;28;19935;-63
2022/10/21 02:50:52;;;;;;;;;;;19.60;69.50;;;;;;5055557;28;20016;-63
2022/10/21 02:53:17;;;;;;;;;;;19.60;69.60;;;;;;5054052;28;19929;-63
2022/10/21 02:55:42;;;;;;;;;;;19.60;69.50;;;;;;5055481;28;20012;-63
2022/10/21 02:58:08;;;;;;;;;;;19.60;69.60;;;;;;5054880;28;19927;-63
2022/10/21 03:00:33;;;;;;;;;;;19.60;69.50;;;;;;5035452;28;20395;-63
2022/10/21 03:02:59;;;;;;;;;;;19.60;69.50;;;;;;5055433;28;19929;-63
2022/10/21 03:05:24;;;;;;;;;;;19.60;69.50;;;;;;5036757;28;19985;-62
2022/10/21 03:07:50;;;;;;;;;;;19.60;69.60;;;;;;5054009;28;19925;-63
2022/10/21 03:10:15;;;;;;;;;;;19.60;69.50;;;;;;5054871;28;19924;-63
2022/10/21 03:12:41;;;;;;;;;;;19.60;69.50;;;;;;5036896;28;19931;-62
2022/10/21 03:15:07;;;;;;;;;;;19.60;69.50;;;;;;5053599;28;19998;-62
2022/10/21 03:17:32;;;;;;;;;;;19.60;69.50;;;;;;5055103;28;20380;-63
2022/10/21 03:20:01;;;;;;;;;;;19.60;69.40;;;;;;5053228;28;19970;-63
2022/10/21 03:22:26;;;;;;;;;;;19.70;69.50;;;;;;5069198;28;20032;-62
2022/10/21 03:24:51;;;;;;;;;;;19.70;69.50;;;;;;5054803;28;20015;-63
2022/10/21 03:27:17;;;;;;;;;;;19.60;69.40;;;;;;5053706;28;20277;-63
2022/10/21 03:29:42;;;;;;;;;;;19.70;69.40;;;;;;5054509;28;19968;-62
2022/10/21 03:32:08;;;;;;;;;;;19.70;69.50;;;;;;5069419;28;19925;-62
2022/10/21 03:34:33;;;;;;;;;;;19.70;69.40;;;;;;5054048;28;19947;-63
2022/10/21 03:36:59;;;;;;;;;;;19.70;69.40;;;;;;5054743;28;19994;-64
2022/10/21 03:39:24;;;;;;;;;;;19.70;69.40;;;;;;5054081;28;20015;-62
2022/10/21 03:41:51;;;;;;;;;;;19.70;69.40;;;;;;5068708;28;20229;-63
2022/10/21 03:44:16;;;;;;;;;;;19.70;69.40;;;;;;5069391;28;19932;-63
2022/10/21 03:46:42;;;;;;;;;;;19.70;69.30;;;;;;5053384;28;20372;-63
2022/10/21 03:49:08;;;;;;;;;;;19.80;69.40;;;;;;5053342;28;19964;-63
2022/10/21 03:51:33;;;;;;;;;;;19.80;69.40;;;;;;5054513;28;19928;-63
2022/10/21 03:53:59;;;;;;;;;;;19.80;69.40;;;;;;5054150;28;20409;-64
2022/10/21 03:56:24;;;;;;;;;;;19.80;69.90;;;;;;5053423;28;19925;-63
2022/10/21 03:58:50;;;;;;;;;;;19.80;69.40;;;;;;5054045;28;19925;-62
2022/10/21 04:01:15;;;;;;;;;;;19.80;69.30;;;;;;5053976;28;20021;-62
2022/10/21 04:03:41;;;;;;;;;;;19.80;69.30;;;;;;5035263;28;19931;-63
2022/10/21 04:06:06;;;;;;;;;;;19.80;69.30;;;;;;5052718;28;19925;-62
2022/10/21 04:08:31;;;;;;;;;;;19.80;69.20;;;;;;5053620;28;20411;-63
2022/10/21 04:10:57;;;;;;;;;;;19.80;69.30;;;;;;5053332;28;19990;-63
2022/10/21 04:13:23;;;;;;;;;;;19.80;69.30;;;;;;5053747;28;19931;-62
2022/10/21 04:15:48;;;;;;;;;;;19.80;69.30;;;;;;5053768;28;19975;-62
2022/10/21 04:18:14;;;;;;;;;;;19.80;69.20;;;;;;5052707;28;19924;-62
2022/10/21 04:20:39;;;;;;;;;;;19.90;69.30;;;;;;5053771;28;20328;-62
2022/10/21 04:23:04;;;;;;;;;;;19.80;69.20;;;;;;5052908;28;19924;-63
2022/10/21 04:25:30;;;;;;;;;;;19.80;69.30;;;;;;5052824;28;20375;-62
2022/10/21 04:27:56;;;;;;;;;;;19.80;69.20;;;;;;5053708;28;19994;-62
2022/10/21 04:30:21;;;;;;;;;;;19.80;69.20;;;;;;5051949;28;20016;-61
2022/10/21 04:32:46;;;;;;;;;;;19.80;69.20;;;;;;5053346;28;19924;-62
2022/10/21 04:35:12;;;;;;;;;;;19.80;69.20;;;;;;5053209;28;19994;-62
2022/10/21 04:37:39;;;;;;;;;;;19.80;69.20;;;;;;5052496;28;19986;-62
2022/10/21 04:40:05;;;;;;;;;;;19.80;69.20;;;;;;5053071;28;20277;-62
2022/10/21 04:42:31;;;;;;;;;;;19.80;69.20;;;;;;5053101;28;19928;-63
2022/10/21 04:44:56;;;;;;;;;;;19.90;69.30;;;;;;5052505;28;19948;-62
2022/10/21 04:47:22;;;;;;;;;;;19.90;69.30;;;;;;5053068;28;19924;-62
2022/10/21 04:49:47;;;;;;;;;;;19.80;69.30;;;;;;5053118;28;20589;-62
2022/10/21 04:52:13;;;;;;;;;;;19.80;69.30;;;;;;5051973;28;19925;-63
2022/10/21 04:54:38;;;;;;;;;;;19.80;69.30;;;;;;5053056;28;19947;-62
2022/10/21 04:57:04;;;;;;;;;;;19.80;69.30;;;;;;5053184;28;19932;-63
2022/10/21 04:59:29;;;;;;;;;;;19.80;69.30;;;;;;5051779;28;20027;-62
2022/10/21 05:01:55;;;;;;;;;;;19.80;69.30;;;;;;5053159;28;19925;-62
2022/10/21 05:04:20;;;;;;;;;;;19.80;69.30;;;;;;5052582;28;19925;-62
2022/10/21 05:06:45;;;;;;;;;;;19.80;69.30;;;;;;5051881;28;20466;-62
2022/10/21 05:09:11;;;;;;;;;;;19.80;69.30;;;;;;5052346;28;19925;-62
2022/10/21 05:11:36;;;;;;;;;;;19.80;69.30;;;;;;5052375;28;20451;-63
2022/10/21 05:14:02;;;;;;;;;;;19.80;69.30;;;;;;5051766;28;19933;-62
2022/10/21 05:16:27;;;;;;;;;;;19.80;69.30;;;;;;5052414;28;20015;-62
2022/10/21 05:18:53;;;;;;;;;;;19.80;69.30;;;;;;5052658;28;19925;-62
2022/10/21 05:21:18;;;;;;;;;;;19.80;69.30;;;;;;5051393;28;19967;-62
2022/10/21 05:23:44;;;;;;;;;;;19.80;69.30;;;;;;5052548;28;19947;-62
2022/10/21 05:26:09;;;;;;;;;;;19.80;69.30;;;;;;5052548;28;19936;-63
2022/10/21 05:28:35;;;;;;;;;;;19.80;69.30;;;;;;5052178;28;19924;-63
2022/10/21 05:31:00;;;;;;;;;;;19.80;69.40;;;;;;5052730;28;19924;-62
2022/10/21 05:33:26;;;;;;;;;;;19.80;69.30;;;;;;5051615;28;19947;-62
2022/10/21 05:35:59;;;;;;;;;;;19.80;69.30;;;;;;5051863;28;20086;-63
2022/10/21 05:38:25;;;;;;;;;;;19.80;69.30;;;;;;5052043;28;19924;-63
2022/10/21 05:40:50;;;;;;;;;;;19.80;69.30;;;;;;5051567;28;19929;-62
2022/10/21 05:43:16;;;;;;;;;;;19.80;69.30;;;;;;5052119;28;19978;-63
2022/10/21 05:45:41;;;;;;;;;;;19.80;69.30;;;;;;5051925;28;19924;-62
2022/10/21 05:48:07;;;;;;;;;;;19.80;69.30;;;;;;5050468;28;20019;-63
2022/10/21 05:50:32;;;;;;;;;;;19.80;69.30;;;;;;5051273;28;19933;-62
2022/10/21 05:52:58;;;;;;;;;;;19.80;69.30;;;;;;5052340;28;19963;-63
2022/10/21 05:55:23;;;;;;;;;;;19.90;69.30;;;;;;5050778;28;20007;-63
2022/10/21 05:57:49;;;;;;;;;;;19.90;69.40;;;;;;5051465;28;19947;-63
2022/10/21 06:00:14;;;;;;;;;;;19.90;69.30;;;;;;5051987;28;19979;-63
2022/10/21 06:02:40;;;;;;;;;;;19.90;69.30;;;;;;5044926;28;19929;-64
2022/10/21 06:05:05;;;;;;;;;;;19.90;69.30;;;;;;5032011;28;19932;-63
2022/10/21 06:07:31;;;;;;;;;;;19.90;69.30;;;;;;5032168;28;19933;-63
2022/10/21 06:09:56;;;;;;;;;;;19.90;69.30;;;;;;5031722;28;19968;-63
2022/10/21 06:12:22;;;;;;;;;;;19.90;69.30;;;;;;5031966;28;19971;-63
2022/10/21 06:14:47;;;;;;;;;;;19.90;69.40;;;;;;5032685;28;19925;-63
2022/10/21 06:17:13;;;;;;;;;;;19.90;69.40;;;;;;5037123;28;19974;-63
2022/10/21 06:19:38;;;;;;;;;;;19.90;69.40;;;;;;5054647;28;19994;-63
2022/10/21 06:22:04;;;;;;;;;;;20.00;69.50;;;;;;5056018;28;19925;-63
2022/10/21 06:24:29;;;;;;;;;;;20.00;69.50;;;;;;5055153;28;19935;-63
2022/10/21 06:26:55;;;;;;;;;;;20.00;69.50;;;;;;5055627;28;19924;-63
2022/10/21 06:29:20;;;;;;;;;;;20.00;69.50;;;;;;5054897;28;19979;-63
2022/10/21 06:31:46;;;;;;;;;;;20.00;69.50;;;;;;5036940;28;19932;-63
2022/10/21 06:34:11;;;;;;;;;;;20.00;69.50;;;;;;5055183;28;19925;-63
2022/10/21 06:36:37;;;;;;;;;;;20.00;69.60;;;;;;5054688;28;19990;-63
2022/10/21 06:39:03;;;;;;;;;;;20.00;69.60;;;;;;5054488;28;19969;-64
2022/10/21 06:41:29;;;;;;;;;;;20.00;69.70;;;;;;5054479;28;20051;-63
2022/10/21 06:43:54;;;;;;;;;;;20.00;69.70;;;;;;5054768;28;19925;-64
2022/10/21 06:46:20;;;;;;;;;;;20.00;69.80;;;;;;5055220;28;19935;-63
2022/10/21 06:48:45;;;;;;;;;;;20.10;70.00;;;;;;5055759;28;19933;-63
2022/10/21 06:51:14;;;;;;;;;;;20.10;69.90;;;;;;5054706;28;20034;-63
2022/10/21 06:53:39;;;;;;;;;;;20.10;69.90;;;;;;5055497;28;20383;-63
2022/10/21 06:56:06;;;;;;;;;;;20.10;70.00;;;;;;5054553;28;19925;-63
2022/10/21 06:58:32;;;;;;;;;;;20.10;70.10;;;;;;5054615;28;19925;-63
2022/10/21 07:00:58;;;;;;;;;;;20.20;70.10;;;;;;5055514;28;19932;-63
2022/10/21 07:03:23;;;;;;;;;;;20.10;70.10;;;;;;5055261;28;19936;-63
2022/10/21 07:05:55;;;;;;;;;;;20.20;70.10;;;;;;5054434;28;19925;-64
2022/10/21 07:08:20;;;;;;;;;;;20.20;70.20;;;;;;5070176;28;19987;-63
2022/10/21 07:10:45;;;;;;;;;;;20.20;70.20;;;;;;5055512;28;19964;-63
2022/10/21 07:13:11;;;;;;;;;;;20.20;70.20;;;;;;5054090;28;19943;-63
2022/10/21 07:15:36;;;;;;;;;;;20.20;70.20;;;;;;5054864;28;19931;-64
2022/10/21 07:18:02;;;;;;;;;;;20.20;70.00;;;;;;5055111;28;20272;-63
2022/10/21 07:20:27;;;;;;;;;;;20.20;70.00;;;;;;5069394;28;19925;-63
2022/10/21 07:22:53;;;;;;;;;;;20.30;70.20;;;;;;5054736;28;19978;-63
2022/10/21 07:25:18;;;;;;;;;;;20.30;70.20;;;;;;5054620;28;20291;-64
2022/10/21 07:27:44;;;;;;;;;;;20.30;70.20;;;;;;5053947;28;19928;-63
2022/10/21 07:30:09;;;;;;;;;;;20.30;70.20;;;;;;5054090;28;19948;-63
2022/10/21 07:32:35;;;;;;;;;;;20.30;70.30;;;;;;5054615;28;19967;-63
2022/10/21 07:35:00;;;;;;;;;;;20.30;70.20;;;;;;5054024;28;19929;-63
2022/10/21 07:37:26;;;;;;;;;;;20.30;70.20;;;;;;5054106;28;20007;-63
2022/10/21 07:39:53;;;;;;;;;;;20.30;70.30;;;;;;5054504;28;20396;-63
2022/10/21 07:42:18;;;;;;;;;;;20.40;70.30;;;;;;5053421;28;19925;-63
2022/10/21 07:44:44;;;;;;;;;;;20.40;70.40;;;;;;5054568;28;19931;-63
2022/10/21 07:47:10;;;;;;;;;;;20.40;70.30;;;;;;5053686;28;20012;-63
2022/10/21 07:49:35;;;;;;;;;;;20.40;70.30;;;;;;5054701;28;19928;-64
2022/10/21 07:52:00;;;;;;;;;;;20.40;70.30;;;;;;5036800;28;20007;-62
2022/10/21 07:54:26;;;;;;;;;;;20.40;70.30;;;;;;5053403;28;19929;-63
2022/10/21 07:56:51;;;;;;;;;;;20.50;70.40;;;;;;5054033;28;19985;-63
2022/10/21 07:59:17;;;;;;;;;;;20.50;70.40;;;;;;5069166;28;20400;-62
2022/10/21 08:01:44;;;;;;;;;;;20.50;70.40;;;;;;5052925;28;19978;-62
2022/10/21 08:04:10;;;;;;;;;;;20.50;70.50;;;;;;5053780;28;19925;-63
2022/10/21 08:06:36;;;;;;;;;;;20.50;70.40;;;;;;5053233;28;20453;-63
2022/10/21 08:09:01;;;;;;;;;;;20.50;70.50;;;;;;5053267;28;19924;-63
2022/10/21 08:11:28;;;;;;;;;;;20.50;70.50;;;;;;5068301;28;19966;-63
2022/10/21 08:13:53;;;;;;;;;;;20.60;70.60;;;;;;5052777;28;19928;-62
2022/10/21 08:16:19;;;;;;;;;;;20.60;70.60;;;;;;5052152;28;20001;-63
2022/10/21 08:18:44;;;;;;;;;;;20.60;70.60;;;;;;5053118;28;20059;-63
2022/10/21 08:21:10;;;;;;;;;;;20.60;70.50;;;;;;5035021;28;19944;-63
2022/10/21 08:23:36;;;;;;;;;;;20.60;70.50;;;;;;5035733;28;19996;-63
2022/10/21 08:26:01;;;;;;;;;;;20.60;70.50;;;;;;5032704;28;20403;-63
2022/10/21 08:28:27;;;;;;;;;;;20.60;70.60;;;;;;5032265;28;19929;-62
2022/10/21 08:30:53;;;;;;;;;;;20.60;70.60;;;;;;5034226;28;19952;-62
2022/10/21 08:33:18;;;;;;;;;;;20.60;70.60;;;;;;5048208;28;20017;-62
2022/10/21 08:35:44;;;;;;;;;;;20.60;70.60;;;;;;5033308;28;19925;-63
2022/10/21 08:38:09;;;;;;;;;;;20.60;70.60;;;;;;5031274;28;19929;-63
2022/10/21 08:40:36;;;;;;;;;;;20.60;70.60;;;;;;5036492;28;19964;-63
2022/10/21 08:43:08;;;;;;;;;;;20.60;70.60;;;;;;5047411;28;19987;-62
2022/10/21 08:45:44;;;;;;;;;;;20.60;70.60;;;;;;5031519;28;19972;-62
2022/10/21 08:48:12;;;;;;;;;;;20.60;70.60;;;;;;5047834;28;19932;-62
2022/10/21 08:50:39;;;;;;;;;;;20.60;70.60;;;;;;5031806;28;19925;-62
2022/10/21 08:53:12;;;;;;;;;;;20.60;70.60;;;;;;5046416;28;19932;-63
2022/10/21 08:55:39;;;;;;;;;;;20.60;70.60;;;;;;5048105;28;19925;-65
2022/10/21 08:58:04;;;;;;;;;;;20.60;70.60;;;;;;5032152;28;19925;-64
2022/10/21 09:00:31;;;;;;;;;;;20.60;70.60;;;;;;5032681;28;19936;-64
2022/10/21 09:02:59;;;;;;;;;;;20.60;70.70;;;;;;5047242;28;19925;-65
2022/10/21 09:05:27;;;;;;;;;;;20.60;70.60;;;;;;5046317;28;20010;-64
2022/10/21 09:08:05;;;;;;;;;;;20.60;70.70;;;;;;5053515;28;19932;-62
2022/10/21 09:10:34;;;;;;;;;;;20.60;70.60;;;;;;5068010;28;19928;-62
2022/10/21 09:13:12;;;;;;;;;;;20.60;70.60;;;;;;5051860;28;20311;-62
2022/10/21 09:15:46;;;;;;;;;;;20.60;70.70;;;;;;5052773;28;19925;-62
2022/10/21 09:18:18;;;;;;;;;;;20.60;70.80;;;;;;5052521;28;19924;-62
2022/10/21 09:20:50;;;;;;;;;;;20.70;70.80;;;;;;5067181;28;19932;-62
2022/10/21 09:23:24;;;;;;;;;;;20.60;70.80;;;;;;5067754;28;19982;-61
2022/10/21 09:25:50;;;;;;;;;;;20.60;70.80;;;;;;5051813;28;19947;-61
2022/10/21 09:28:15;;;;;;;;;;;20.60;70.90;;;;;;5052393;28;20269;-62
2022/10/21 09:30:41;;;;;;;;;;;20.60;71.00;;;;;;5047250;28;19937;-62
2022/10/21 09:33:27;;;;;;;;;;;20.70;71.00;;;;;;5042566;28;19929;-63
2022/10/21 09:36:19;;;;;;;;;;;20.70;71.00;;;;;;5032397;28;19925;-61
2022/10/21 09:38:55;;;;;;;;;;;20.70;70.90;;;;;;5031102;28;20344;-61
2022/10/21 09:41:26;;;;;;;;;;;20.70;70.90;;;;;;5046199;28;19929;-61
2022/10/21 09:43:52;;;;;;;;;;;20.70;70.90;;;;;;5047613;28;20071;-61
2022/10/21 09:46:17;;;;;;;;;;;20.70;70.90;;;;;;5032000;28;19945;-63
2022/10/21 09:48:46;;;;;;;;;;;20.70;70.90;;;;;;5065947;28;20011;-62
2022/10/21 09:51:19;;;;;;;;;;;20.60;70.90;;;;;;5052278;28;19974;-63
2022/10/21 09:53:50;;;;;;;;;;;20.60;70.90;;;;;;5070437;28;19924;-61
2022/10/21 09:56:19;;;;;;;;;;;20.70;71.10;;;;;;5071997;28;19933;-61
2022/10/21 09:58:49;;;;;;;;;;;20.60;71.20;;;;;;5072103;28;19921;-62
2022/10/21 10:01:18;;;;;;;;;;;20.60;71.30;;;;;;5055547;28;19924;-61
2022/10/21 10:03:50;;;;;;;;;;;20.60;71.30;;;;;;5056347;28;20394;-61
2022/10/21 10:06:35;;;;;;;;;;;20.60;71.30;;;;;;5056050;28;19955;-61
2022/10/21 10:09:07;;;;;;;;;;;20.60;71.20;;;;;;5055668;28;19983;-61
2022/10/21 10:11:32;;;;;;;;;;;20.60;71.20;;;;;;5054799;28;19978;-62
2022/10/21 10:13:59;;;;;;;;;;;20.60;71.80;;;;;;5071572;28;19932;-61
2022/10/21 10:16:25;;;;;;;;;;;20.60;71.00;;;;;;5070109;28;19956;-62
2022/10/21 10:18:51;;;;;;;;;;;20.60;71.00;;;;;;5055930;28;20311;-61
2022/10/21 10:21:20;;;;;;;;;;;20.60;71.00;;;;;;5071287;28;19968;-61
2022/10/21 10:23:45;;;;;;;;;;;20.60;71.10;;;;;;5054349;28;19924;-63
2022/10/21 10:26:21;;;;;;;;;;;20.60;71.00;;;;;;5055618;28;20391;-63
2022/10/21 10:28:48;;;;;;;;;;;20.50;70.90;;;;;;5071232;28;19928;-63
2022/10/21 10:31:13;;;;;;;;;;;20.50;71.00;;;;;;5069392;28;19932;-63
2022/10/21 10:33:39;;;;;;;;;;;20.50;70.90;;;;;;5070853;28;19931;-64
2022/10/21 10:36:05;;;;;;;;;;;20.50;70.90;;;;;;5055009;28;20292;-64
2022/10/21 10:38:31;;;;;;;;;;;20.50;70.90;;;;;;5070723;28;19986;-63
2022/10/21 10:41:06;;;;;;;;;;;20.50;70.90;;;;;;5055964;28;19929;-63
2022/10/21 10:43:32;;;;;;;;;;;20.50;70.80;;;;;;5051923;28;19935;-60
2022/10/21 10:46:04;;;;;;;;;;;20.50;70.80;;;;;;5054445;28;19925;-60
2022/10/21 10:48:39;;;;;;;;;;;20.50;70.80;;;;;;5069964;28;19925;-62
2022/10/21 10:51:06;;;;;;;;;;;20.50;70.80;;;;;;5052751;28;19925;-62
2022/10/21 10:53:32;;;;;;;;;;;20.50;70.80;;;;;;5053568;28;19974;-62
2022/10/21 10:56:21;;;;;;;;;;;20.40;70.80;;;;;;5053745;28;19932;-61
2022/10/21 10:58:57;;;;;;;;;;;20.40;70.80;;;;;;5051056;28;19924;-63
2022/10/21 11:01:24;;;;;;;;;;;20.50;70.90;;;;;;5051406;28;20376;-62
2022/10/21 11:03:54;;;;;;;;;;;20.40;70.80;;;;;;5069228;28;19932;-62
2022/10/21 11:06:21;;;;;;;;;;;20.40;71.00;;;;;;5068577;28;20280;-62
2022/10/21 11:08:51;;;;;;;;;;;20.40;70.90;;;;;;5069693;28;19928;-62
2022/10/21 11:11:21;;;;;;;;;;;20.40;70.80;;;;;;5066687;28;20015;-62
2022/10/21 11:13:46;;;;;;;;;;;20.40;70.80;;;;;;5054850;28;19925;-63
2022/10/21 11:16:23;;;;;;;;;;;20.40;70.90;;;;;;5054470;28;20338;-63
2022/10/21 11:18:51;;;;;;;;;;;20.40;70.80;;;;;;5054609;28;19924;-63
2022/10/21 11:21:19;;;;;;;;;;;20.40;70.70;;;;;;5054552;28;20385;-63
2022/10/21 11:23:45;;;;;;;;;;;20.40;70.80;;;;;;5054930;28;20406;-63
2022/10/21 11:26:20;;;;;;;;;;;20.40;70.80;;;;;;5053956;28;19960;-63
2022/10/21 11:28:46;;;;;;;;;;;20.40;70.80;;;;;;5070256;28;19970;-62
2022/10/21 11:31:17;;;;;;;;;;;20.40;70.80;;;;;;5054369;28;19925;-62
2022/10/21 11:33:45;;;;;;;;;;;20.30;70.80;;;;;;5053712;28;20352;-62
2022/10/21 11:36:11;;;;;;;;;;;20.40;70.80;;;;;;5054386;28;19982;-63
2022/10/21 11:38:40;;;;;;;;;;;20.30;70.80;;;;;;5054305;28;19929;-62
2022/10/21 11:41:12;;;;;;;;;;;20.40;70.90;;;;;;5053373;28;20376;-62
2022/10/21 11:43:40;;;;;;;;;;;20.30;70.80;;;;;;5054412;28;19932;-63
2022/10/21 11:46:17;;;;;;;;;;;20.30;70.80;;;;;;5054119;28;20362;-62
2022/10/21 11:48:54;;;;;;;;;;;20.30;70.80;;;;;;5054255;28;19936;-62
2022/10/21 11:51:30;;;;;;;;;;;20.30;70.80;;;;;;5054225;28;19943;-62
2022/10/21 11:53:58;;;;;;;;;;;20.30;70.80;;;;;;5068809;28;19924;-62
2022/10/21 11:56:26;;;;;;;;;;;20.30;70.90;;;;;;5053808;28;19976;-62
2022/10/21 11:59:04;;;;;;;;;;;20.30;70.90;;;;;;5069116;28;19933;-61
2022/10/21 12:01:36;;;;;;;;;;;20.30;70.90;;;;;;5032426;28;19925;-61
2022/10/21 12:04:13;;;;;;;;;;;20.30;70.90;;;;;;5053250;28;19925;-60
2022/10/21 12:06:45;;;;;;;;;;;20.30;71.00;;;;;;5051136;28;19984;-60
2022/10/21 12:09:11;;;;;;;;;;;20.30;71.00;;;;;;5052181;28;19925;-60
2022/10/21 12:11:38;;;;;;;;;;;20.30;71.10;;;;;;5063219;28;19929;-60
2022/10/21 12:14:22;;;;;;;;;;;20.30;71.10;;;;;;5048852;28;19932;-61
2022/10/21 12:16:47;;;;;;;;;;;20.30;71.20;;;;;;5031830;28;19975;-61
2022/10/21 12:19:13;;;;;;;;;;;20.30;71.30;;;;;;5033373;28;19969;-61
2022/10/21 12:21:39;;;;;;;;;;;20.30;71.30;;;;;;5048215;28;19937;-62
2022/10/21 12:24:20;;;;;;;;;;;20.30;71.60;;;;;;5033681;28;20369;-61
2022/10/21 12:26:49;;;;;;;;;;;20.30;71.60;;;;;;5033944;28;19931;-61
2022/10/21 12:29:15;;;;;;;;;;;20.30;71.70;;;;;;5048183;28;19987;-61
2022/10/21 12:31:55;;;;;;;;;;;20.30;71.60;;;;;;5033897;28;19929;-61
2022/10/21 12:34:21;;;;;;;;;;;20.30;71.60;;;;;;5044024;28;19929;-60
2022/10/21 12:36:49;;;;;;;;;;;20.30;71.60;;;;;;5068377;28;19952;-62
2022/10/21 12:39:38;;;;;;;;;;;20.30;71.60;;;;;;5051905;28;20283;-61
2022/10/21 12:42:04;;;;;;;;;;;20.30;71.50;;;;;;5049426;28;19925;-61
2022/10/21 12:44:30;;;;;;;;;;;20.30;71.60;;;;;;5051431;28;19932;-60
2022/10/21 12:46:56;;;;;;;;;;;20.30;71.60;;;;;;5068023;28;19925;-61
2022/10/21 12:49:29;;;;;;;;;;;20.30;71.60;;;;;;5052445;28;19929;-60
2022/10/21 12:51:56;;;;;;;;;;;20.30;71.70;;;;;;5065161;28;19925;-60
2022/10/21 12:54:23;;;;;;;;;;;20.30;71.60;;;;;;5052405;28;19932;-60
2022/10/21 12:56:49;;;;;;;;;;;20.30;71.70;;;;;;5051101;28;20046;-60
2022/10/21 12:59:25;;;;;;;;;;;20.30;71.70;;;;;;5052516;28;19968;-61
2022/10/21 13:02:03;;;;;;;;;;;20.30;71.80;;;;;;5053136;28;19932;-61
2022/10/21 13:04:28;;;;;;;;;;;20.30;71.80;;;;;;5051835;28;19924;-60
2022/10/21 13:06:54;;;;;;;;;;;20.30;71.60;;;;;;5052864;28;20343;-60
2022/10/21 13:09:33;;;;;;;;;;;20.30;71.60;;;;;;5052511;28;19924;-60
2022/10/21 13:12:08;;;;;;;;;;;20.30;71.60;;;;;;5052249;28;19932;-61
2022/10/21 13:14:43;;;;;;;;;;;20.30;71.70;;;;;;5052169;28;20380;-60
2022/10/21 13:17:21;;;;;;;;;;;20.30;71.60;;;;;;5049040;28;19924;-61
2022/10/21 13:19:46;;;;;;;;;;;20.20;71.60;;;;;;5051778;28;19925;-60
2022/10/21 13:22:13;;;;;;;;;;;20.20;71.60;;;;;;5052116;28;19925;-61
2022/10/21 13:24:39;;;;;;;;;;;20.30;71.70;;;;;;5052240;28;20457;-61
2022/10/21 13:27:22;;;;;;;;;;;20.20;71.70;;;;;;5066702;28;19968;-60
2022/10/21 13:29:48;;;;;;;;;;;20.20;71.70;;;;;;5067653;28;19931;-61
2022/10/21 13:32:13;;;;;;;;;;;20.20;71.70;;;;;;5050437;28;20007;-61
2022/10/21 13:34:39;;;;;;;;;;;20.20;71.80;;;;;;5052589;28;19928;-61
2022/10/21 13:37:11;;;;;;;;;;;20.30;71.90;;;;;;5052116;28;20659;-61
2022/10/21 13:39:37;;;;;;;;;;;20.20;72.20;;;;;;5051291;28;20376;-62
2022/10/21 13:42:03;;;;;;;;;;;20.30;72.30;;;;;;5068334;28;19929;-62
2022/10/21 13:44:35;;;;;;;;;;;20.30;72.50;;;;;;5052129;28;19925;-62
2022/10/21 13:47:25;;;;;;;;;;;20.30;72.50;;;;;;5051711;28;19932;-62
2022/10/21 13:49:54;;;;;;;;;;;20.30;72.40;;;;;;5052676;28;19924;-62
2022/10/21 13:52:20;;;;;;;;;;;20.30;72.40;;;;;;5051752;28;20008;-62
2022/10/21 13:54:45;;;;;;;;;;;20.30;72.40;;;;;;5050997;28;20448;-62
2022/10/21 13:57:14;;;;;;;;;;;20.30;72.40;;;;;;5052197;28;20027;-62
2022/10/21 13:59:40;;;;;;;;;;;20.30;72.40;;;;;;5052171;28;20306;-62
2022/10/21 14:02:05;;;;;;;;;;;20.40;72.50;;;;;;5051308;28;20012;-62
2022/10/21 14:04:31;;;;;;;;;;;20.40;72.50;;;;;;5052194;28;19929;-62
2022/10/21 14:07:02;;;;;;;;;;;20.40;72.50;;;;;;5051916;28;20020;-61
2022/10/21 14:09:32;;;;;;;;;;;20.40;72.60;;;;;;5067284;28;19924;-62
2022/10/21 14:11:59;;;;;;;;;;;20.40;72.50;;;;;;5052163;28;19935;-65
2022/10/21 14:14:25;;;;;;;;;;;20.40;72.60;;;;;;5049245;28;19924;-61
2022/10/21 14:16:58;;;;;;;;;;;20.40;72.70;;;;;;5051906;28;19960;-62
2022/10/21 14:19:26;;;;;;;;;;;20.50;72.80;;;;;;5051556;28;20037;-62